sensor_id;sensor_type;location;lat;lon;timestamp;P1;durP1;ratioP1;P2;durP2;ratioP2
29504;SDS011;16452;54.174;12.092;2022-11-22T00:01:03;18.42;;;13.32;;
29504;SDS011;16452;54.174;12.092;2022-11-22T00:03:29;19.27;;;13.13;;
29504;SDS011;16452;54.174;12.092;2022-11-22T00:05:55;18.52;;;12.10;;
29504;SDS011;16452;54.174;12.092;2022-11-22T00:08:21;21.15;;;12.90;;
29504;SDS011;16452;54.174;12.092;2022-11-22T00:10:47;20.73;;;12.88;;
29504;SDS011;16452;54.174;12.092;2022-11-22T00:13:13;21.90;;;14.00;;
29504;SDS011;16452;54.174;12.092;2022-11-22T00:15:43;20.38;;;13.85;;
29504;SDS011;16452;54.174;12.092;2022-11-22T00:18:09;18.25;;;12.70;;
29504;SDS011;16452;54.174;12.092;2022-11-22T00:20:35;21.92;;;14.55;;
29504;SDS011;16452;54.174;12.092;2022-11-22T00:23:01;20.92;;;14.15;;
29504;SDS011;16452;54.174;12.092;2022-11-22T00:25:27;21.15;;;14.30;;
29504;SDS011;16452;54.174;12.092;2022-11-22T00:27:53;19.58;;;12.80;;
29504;SDS011;16452;54.174;12.092;2022-11-22T00:30:19;25.38;;;14.48;;
29504;SDS011;16452;54.174;12.092;2022-11-22T00:32:45;20.30;;;13.82;;
29504;SDS011;16452;54.174;12.092;2022-11-22T00:35:12;17.95;;;11.48;;
29504;SDS011;16452;54.174;12.092;2022-11-22T00:37:37;16.88;;;11.93;;
29504;SDS011;16452;54.174;12.092;2022-11-22T00:40:04;17.85;;;12.88;;
29504;SDS011;16452;54.174;12.092;2022-11-22T00:42:30;18.45;;;12.80;;
29504;SDS011;16452;54.174;12.092;2022-11-22T00:44:56;19.08;;;12.70;;
29504;SDS011;16452;54.174;12.092;2022-11-22T00:47:22;18.17;;;12.93;;
29504;SDS011;16452;54.174;12.092;2022-11-22T00:49:47;21.13;;;14.40;;
29504;SDS011;16452;54.174;12.092;2022-11-22T00:52:13;21.83;;;15.23;;
29504;SDS011;16452;54.174;12.092;2022-11-22T00:54:39;22.42;;;15.35;;
29504;SDS011;16452;54.174;12.092;2022-11-22T00:57:05;22.80;;;15.55;;
29504;SDS011;16452;54.174;12.092;2022-11-22T00:59:31;20.42;;;14.18;;
29504;SDS011;16452;54.174;12.092;2022-11-22T01:01:56;25.00;;;16.48;;
29504;SDS011;16452;54.174;12.092;2022-11-22T01:04:22;23.35;;;15.38;;
29504;SDS011;16452;54.174;12.092;2022-11-22T01:06:48;22.17;;;15.00;;
29504;SDS011;16452;54.174;12.092;2022-11-22T01:09:20;23.35;;;15.45;;
29504;SDS011;16452;54.174;12.092;2022-11-22T01:11:47;25.60;;;16.30;;
29504;SDS011;16452;54.174;12.092;2022-11-22T01:14:14;25.83;;;17.02;;
29504;SDS011;16452;54.174;12.092;2022-11-22T01:16:41;27.05;;;17.55;;
29504;SDS011;16452;54.174;12.092;2022-11-22T01:19:07;26.02;;;16.25;;
29504;SDS011;16452;54.174;12.092;2022-11-22T01:21:33;23.58;;;16.73;;
29504;SDS011;16452;54.174;12.092;2022-11-22T01:23:59;26.85;;;16.00;;
29504;SDS011;16452;54.174;12.092;2022-11-22T01:26:25;27.60;;;16.23;;
29504;SDS011;16452;54.174;12.092;2022-11-22T01:28:51;26.23;;;16.70;;
29504;SDS011;16452;54.174;12.092;2022-11-22T01:31:17;25.73;;;17.02;;
29504;SDS011;16452;54.174;12.092;2022-11-22T01:33:42;25.08;;;15.60;;
29504;SDS011;16452;54.174;12.092;2022-11-22T01:36:08;26.25;;;16.40;;
29504;SDS011;16452;54.174;12.092;2022-11-22T01:38:34;26.92;;;16.90;;
29504;SDS011;16452;54.174;12.092;2022-11-22T01:41:00;25.85;;;16.08;;
29504;SDS011;16452;54.174;12.092;2022-11-22T01:43:26;27.30;;;16.05;;
29504;SDS011;16452;54.174;12.092;2022-11-22T01:45:54;22.80;;;14.77;;
29504;SDS011;16452;54.174;12.092;2022-11-22T01:50:57;23.92;;;15.25;;
29504;SDS011;16452;54.174;12.092;2022-11-22T01:53:31;24.05;;;15.35;;
29504;SDS011;16452;54.174;12.092;2022-11-22T01:56:02;21.90;;;14.23;;
29504;SDS011;16452;54.174;12.092;2022-11-22T01:58:32;21.17;;;13.75;;
29504;SDS011;16452;54.174;12.092;2022-11-22T02:00:59;22.00;;;13.57;;
29504;SDS011;16452;54.174;12.092;2022-11-22T02:03:26;23.15;;;14.63;;
29504;SDS011;16452;54.174;12.092;2022-11-22T02:05:53;23.80;;;14.52;;
29504;SDS011;16452;54.174;12.092;2022-11-22T02:11:00;25.17;;;15.73;;
29504;SDS011;16452;54.174;12.092;2022-11-22T02:13:27;23.52;;;14.82;;
29504;SDS011;16452;54.174;12.092;2022-11-22T02:15:58;21.90;;;15.15;;
29504;SDS011;16452;54.174;12.092;2022-11-22T02:18:24;22.38;;;15.45;;
29504;SDS011;16452;54.174;12.092;2022-11-22T02:20:50;23.85;;;15.93;;
29504;SDS011;16452;54.174;12.092;2022-11-22T02:26:06;24.02;;;16.30;;
29504;SDS011;16452;54.174;12.092;2022-11-22T02:28:33;22.38;;;15.88;;
29504;SDS011;16452;54.174;12.092;2022-11-22T02:31:03;25.88;;;16.92;;
29504;SDS011;16452;54.174;12.092;2022-11-22T02:33:29;24.38;;;16.10;;
29504;SDS011;16452;54.174;12.092;2022-11-22T02:35:55;27.90;;;16.08;;
29504;SDS011;16452;54.174;12.092;2022-11-22T02:38:21;25.35;;;15.90;;
29504;SDS011;16452;54.174;12.092;2022-11-22T02:43:33;23.65;;;15.90;;
29504;SDS011;16452;54.174;12.092;2022-11-22T02:46:07;25.10;;;16.38;;
29504;SDS011;16452;54.174;12.092;2022-11-22T02:48:41;24.67;;;16.20;;
29504;SDS011;16452;54.174;12.092;2022-11-22T02:51:09;28.65;;;16.40;;
29504;SDS011;16452;54.174;12.092;2022-11-22T02:53:35;24.85;;;16.10;;
29504;SDS011;16452;54.174;12.092;2022-11-22T02:56:01;28.52;;;17.13;;
29504;SDS011;16452;54.174;12.092;2022-11-22T02:58:27;24.90;;;16.45;;
29504;SDS011;16452;54.174;12.092;2022-11-22T03:00:53;25.27;;;16.33;;
29504;SDS011;16452;54.174;12.092;2022-11-22T03:03:19;26.90;;;17.33;;
29504;SDS011;16452;54.174;12.092;2022-11-22T03:05:44;27.55;;;17.58;;
29504;SDS011;16452;54.174;12.092;2022-11-22T03:08:10;25.98;;;17.17;;
29504;SDS011;16452;54.174;12.092;2022-11-22T03:10:36;26.88;;;17.17;;
29504;SDS011;16452;54.174;12.092;2022-11-22T03:13:01;28.13;;;16.92;;
29504;SDS011;16452;54.174;12.092;2022-11-22T03:15:27;26.48;;;17.77;;
29504;SDS011;16452;54.174;12.092;2022-11-22T03:17:57;28.75;;;17.75;;
29504;SDS011;16452;54.174;12.092;2022-11-22T03:20:24;27.60;;;17.92;;
29504;SDS011;16452;54.174;12.092;2022-11-22T03:22:51;25.92;;;17.35;;
29504;SDS011;16452;54.174;12.092;2022-11-22T03:25:17;28.10;;;18.00;;
29504;SDS011;16452;54.174;12.092;2022-11-22T03:27:44;26.92;;;17.60;;
29504;SDS011;16452;54.174;12.092;2022-11-22T03:30:10;26.73;;;18.42;;
29504;SDS011;16452;54.174;12.092;2022-11-22T03:32:36;27.92;;;18.73;;
29504;SDS011;16452;54.174;12.092;2022-11-22T03:35:02;29.10;;;17.95;;
29504;SDS011;16452;54.174;12.092;2022-11-22T03:37:28;26.52;;;17.52;;
29504;SDS011;16452;54.174;12.092;2022-11-22T03:39:53;29.30;;;18.85;;
29504;SDS011;16452;54.174;12.092;2022-11-22T03:42:19;28.30;;;18.42;;
29504;SDS011;16452;54.174;12.092;2022-11-22T03:44:45;29.08;;;18.92;;
29504;SDS011;16452;54.174;12.092;2022-11-22T03:47:11;29.05;;;18.90;;
29504;SDS011;16452;54.174;12.092;2022-11-22T03:49:36;29.98;;;19.55;;
29504;SDS011;16452;54.174;12.092;2022-11-22T03:52:02;33.58;;;20.05;;
29504;SDS011;16452;54.174;12.092;2022-11-22T03:54:28;30.83;;;19.67;;
29504;SDS011;16452;54.174;12.092;2022-11-22T03:56:53;33.58;;;19.88;;
29504;SDS011;16452;54.174;12.092;2022-11-22T03:59:19;31.00;;;20.08;;
29504;SDS011;16452;54.174;12.092;2022-11-22T04:01:45;31.02;;;18.85;;
29504;SDS011;16452;54.174;12.092;2022-11-22T04:04:11;30.35;;;20.20;;
29504;SDS011;16452;54.174;12.092;2022-11-22T04:06:37;31.27;;;19.63;;
29504;SDS011;16452;54.174;12.092;2022-11-22T04:09:03;28.77;;;18.42;;
29504;SDS011;16452;54.174;12.092;2022-11-22T04:11:29;28.38;;;18.50;;
29504;SDS011;16452;54.174;12.092;2022-11-22T04:13:55;27.73;;;18.10;;
29504;SDS011;16452;54.174;12.092;2022-11-22T04:16:40;27.90;;;18.52;;
29504;SDS011;16452;54.174;12.092;2022-11-22T04:19:05;31.35;;;19.92;;
29504;SDS011;16452;54.174;12.092;2022-11-22T04:21:31;29.58;;;18.95;;
29504;SDS011;16452;54.174;12.092;2022-11-22T04:24:00;33.05;;;22.05;;
29504;SDS011;16452;54.174;12.092;2022-11-22T04:26:46;31.73;;;20.15;;
29504;SDS011;16452;54.174;12.092;2022-11-22T04:29:13;32.15;;;21.08;;
29504;SDS011;16452;54.174;12.092;2022-11-22T04:31:39;31.17;;;20.15;;
29504;SDS011;16452;54.174;12.092;2022-11-22T04:34:24;29.80;;;20.45;;
29504;SDS011;16452;54.174;12.092;2022-11-22T04:36:50;32.20;;;21.30;;
29504;SDS011;16452;54.174;12.092;2022-11-22T04:39:16;32.03;;;20.27;;
29504;SDS011;16452;54.174;12.092;2022-11-22T04:41:41;33.95;;;20.95;;
29504;SDS011;16452;54.174;12.092;2022-11-22T04:44:08;31.38;;;19.60;;
29504;SDS011;16452;54.174;12.092;2022-11-22T04:46:52;30.63;;;19.83;;
29504;SDS011;16452;54.174;12.092;2022-11-22T04:49:18;28.90;;;19.05;;
29504;SDS011;16452;54.174;12.092;2022-11-22T04:51:44;31.08;;;19.92;;
29504;SDS011;16452;54.174;12.092;2022-11-22T04:54:28;34.13;;;20.33;;
29504;SDS011;16452;54.174;12.092;2022-11-22T04:56:54;30.30;;;19.40;;
29504;SDS011;16452;54.174;12.092;2022-11-22T04:59:19;33.80;;;19.35;;
29504;SDS011;16452;54.174;12.092;2022-11-22T05:01:45;32.60;;;19.23;;
29504;SDS011;16452;54.174;12.092;2022-11-22T05:04:11;31.52;;;19.33;;
29504;SDS011;16452;54.174;12.092;2022-11-22T05:06:36;31.60;;;19.98;;
29504;SDS011;16452;54.174;12.092;2022-11-22T05:09:02;30.02;;;20.02;;
29504;SDS011;16452;54.174;12.092;2022-11-22T05:11:28;33.28;;;19.58;;
29504;SDS011;16452;54.174;12.092;2022-11-22T05:13:54;34.83;;;20.67;;
29504;SDS011;16452;54.174;12.092;2022-11-22T05:16:20;32.03;;;19.63;;
29504;SDS011;16452;54.174;12.092;2022-11-22T05:18:45;35.22;;;19.65;;
29504;SDS011;16452;54.174;12.092;2022-11-22T05:21:23;32.83;;;19.92;;
29504;SDS011;16452;54.174;12.092;2022-11-22T05:23:53;33.70;;;19.73;;
29504;SDS011;16452;54.174;12.092;2022-11-22T05:26:24;34.80;;;19.75;;
29504;SDS011;16452;54.174;12.092;2022-11-22T05:29:03;31.20;;;19.35;;
29504;SDS011;16452;54.174;12.092;2022-11-22T05:31:32;32.55;;;18.80;;
29504;SDS011;16452;54.174;12.092;2022-11-22T05:33:59;29.58;;;19.00;;
29504;SDS011;16452;54.174;12.092;2022-11-22T05:36:26;30.92;;;18.35;;
29504;SDS011;16452;54.174;12.092;2022-11-22T05:38:54;31.65;;;19.63;;
29504;SDS011;16452;54.174;12.092;2022-11-22T05:41:20;31.80;;;20.33;;
29504;SDS011;16452;54.174;12.092;2022-11-22T05:43:46;36.42;;;21.42;;
29504;SDS011;16452;54.174;12.092;2022-11-22T05:46:15;33.17;;;21.20;;
29504;SDS011;16452;54.174;12.092;2022-11-22T05:48:45;33.95;;;20.73;;
29504;SDS011;16452;54.174;12.092;2022-11-22T05:51:15;34.55;;;21.45;;
29504;SDS011;16452;54.174;12.092;2022-11-22T05:53:43;31.95;;;19.55;;
29504;SDS011;16452;54.174;12.092;2022-11-22T05:56:14;30.55;;;19.90;;
29504;SDS011;16452;54.174;12.092;2022-11-22T05:58:42;32.75;;;20.13;;
29504;SDS011;16452;54.174;12.092;2022-11-22T06:01:13;31.80;;;19.88;;
29504;SDS011;16452;54.174;12.092;2022-11-22T06:03:47;27.70;;;18.42;;
29504;SDS011;16452;54.174;12.092;2022-11-22T06:06:14;31.67;;;19.80;;
29504;SDS011;16452;54.174;12.092;2022-11-22T06:08:41;32.60;;;20.55;;
29504;SDS011;16452;54.174;12.092;2022-11-22T06:11:15;32.00;;;20.08;;
29504;SDS011;16452;54.174;12.092;2022-11-22T06:13:50;34.67;;;20.60;;
29504;SDS011;16452;54.174;12.092;2022-11-22T06:16:19;34.13;;;20.83;;
29504;SDS011;16452;54.174;12.092;2022-11-22T06:18:45;36.05;;;21.60;;
29504;SDS011;16452;54.174;12.092;2022-11-22T06:21:13;34.88;;;22.13;;
29504;SDS011;16452;54.174;12.092;2022-11-22T06:23:47;37.72;;;21.25;;
29504;SDS011;16452;54.174;12.092;2022-11-22T06:26:15;34.88;;;21.33;;
29504;SDS011;16452;54.174;12.092;2022-11-22T06:28:44;38.08;;;21.27;;
29504;SDS011;16452;54.174;12.092;2022-11-22T06:33:39;34.20;;;21.58;;
29504;SDS011;16452;54.174;12.092;2022-11-22T06:38:33;37.92;;;22.92;;
29504;SDS011;16452;54.174;12.092;2022-11-22T06:41:04;37.67;;;22.40;;
29504;SDS011;16452;54.174;12.092;2022-11-22T06:43:32;37.47;;;22.83;;
29504;SDS011;16452;54.174;12.092;2022-11-22T06:45:59;37.17;;;24.58;;
29504;SDS011;16452;54.174;12.092;2022-11-22T06:48:30;38.20;;;22.83;;
29504;SDS011;16452;54.174;12.092;2022-11-22T06:50:59;39.10;;;22.92;;
29504;SDS011;16452;54.174;12.092;2022-11-22T06:53:30;38.40;;;23.67;;
29504;SDS011;16452;54.174;12.092;2022-11-22T06:56:02;37.28;;;23.00;;
29504;SDS011;16452;54.174;12.092;2022-11-22T06:58:34;40.35;;;24.48;;
29504;SDS011;16452;54.174;12.092;2022-11-22T07:01:02;37.92;;;22.55;;
29504;SDS011;16452;54.174;12.092;2022-11-22T07:03:37;36.08;;;22.23;;
29504;SDS011;16452;54.174;12.092;2022-11-22T07:06:05;34.83;;;21.95;;
29504;SDS011;16452;54.174;12.092;2022-11-22T07:08:32;35.50;;;22.17;;
29504;SDS011;16452;54.174;12.092;2022-11-22T07:11:02;37.00;;;22.27;;
29504;SDS011;16452;54.174;12.092;2022-11-22T07:13:34;35.90;;;22.02;;
29504;SDS011;16452;54.174;12.092;2022-11-22T07:16:01;36.58;;;21.58;;
29504;SDS011;16452;54.174;12.092;2022-11-22T07:18:28;36.13;;;22.13;;
29504;SDS011;16452;54.174;12.092;2022-11-22T07:21:05;36.15;;;22.48;;
29504;SDS011;16452;54.174;12.092;2022-11-22T07:23:43;36.97;;;20.58;;
29504;SDS011;16452;54.174;12.092;2022-11-22T07:26:12;37.33;;;21.83;;
29504;SDS011;16452;54.174;12.092;2022-11-22T07:28:39;38.83;;;22.23;;
29504;SDS011;16452;54.174;12.092;2022-11-22T07:31:05;36.60;;;21.98;;
29504;SDS011;16452;54.174;12.092;2022-11-22T07:33:33;36.33;;;21.02;;
29504;SDS011;16452;54.174;12.092;2022-11-22T07:36:07;35.90;;;21.38;;
29504;SDS011;16452;54.174;12.092;2022-11-22T07:38:37;36.88;;;21.65;;
29504;SDS011;16452;54.174;12.092;2022-11-22T07:41:03;34.88;;;20.85;;
29504;SDS011;16452;54.174;12.092;2022-11-22T07:43:30;35.20;;;21.35;;
29504;SDS011;16452;54.174;12.092;2022-11-22T07:45:57;33.75;;;21.42;;
29504;SDS011;16452;54.174;12.092;2022-11-22T07:48:53;36.28;;;21.95;;
29504;SDS011;16452;54.174;12.092;2022-11-22T07:51:19;32.47;;;20.25;;
29504;SDS011;16452;54.174;12.092;2022-11-22T07:53:45;37.78;;;21.50;;
29504;SDS011;16452;54.174;12.092;2022-11-22T07:56:11;34.50;;;21.73;;
29504;SDS011;16452;54.174;12.092;2022-11-22T07:58:37;36.22;;;20.95;;
29504;SDS011;16452;54.174;12.092;2022-11-22T08:01:04;37.88;;;21.73;;
29504;SDS011;16452;54.174;12.092;2022-11-22T08:03:37;34.15;;;20.63;;
29504;SDS011;16452;54.174;12.092;2022-11-22T08:06:04;32.58;;;20.77;;
29504;SDS011;16452;54.174;12.092;2022-11-22T08:08:33;32.05;;;20.05;;
29504;SDS011;16452;54.174;12.092;2022-11-22T08:10:59;32.58;;;20.80;;
29504;SDS011;16452;54.174;12.092;2022-11-22T08:13:26;33.20;;;20.13;;
29504;SDS011;16452;54.174;12.092;2022-11-22T08:15:52;34.97;;;20.65;;
29504;SDS011;16452;54.174;12.092;2022-11-22T08:18:18;34.40;;;20.98;;
29504;SDS011;16452;54.174;12.092;2022-11-22T08:20:44;37.00;;;21.35;;
29504;SDS011;16452;54.174;12.092;2022-11-22T08:23:10;31.30;;;20.40;;
29504;SDS011;16452;54.174;12.092;2022-11-22T08:25:36;31.90;;;20.15;;
29504;SDS011;16452;54.174;12.092;2022-11-22T08:28:01;34.45;;;21.45;;
29504;SDS011;16452;54.174;12.092;2022-11-22T08:30:27;33.15;;;21.13;;
29504;SDS011;16452;54.174;12.092;2022-11-22T08:32:53;32.40;;;21.00;;
29504;SDS011;16452;54.174;12.092;2022-11-22T08:35:20;28.95;;;19.85;;
29504;SDS011;16452;54.174;12.092;2022-11-22T08:37:45;32.10;;;19.83;;
29504;SDS011;16452;54.174;12.092;2022-11-22T08:40:11;36.17;;;21.75;;
29504;SDS011;16452;54.174;12.092;2022-11-22T08:42:37;33.35;;;19.95;;
29504;SDS011;16452;54.174;12.092;2022-11-22T08:45:04;34.10;;;21.15;;
29504;SDS011;16452;54.174;12.092;2022-11-22T08:47:30;31.75;;;18.95;;
29504;SDS011;16452;54.174;12.092;2022-11-22T08:49:56;33.60;;;20.38;;
29504;SDS011;16452;54.174;12.092;2022-11-22T08:52:21;33.50;;;20.77;;
29504;SDS011;16452;54.174;12.092;2022-11-22T08:54:47;32.72;;;20.00;;
29504;SDS011;16452;54.174;12.092;2022-11-22T08:57:13;33.22;;;21.20;;
29504;SDS011;16452;54.174;12.092;2022-11-22T08:59:39;33.55;;;20.58;;
29504;SDS011;16452;54.174;12.092;2022-11-22T09:02:05;32.50;;;20.30;;
29504;SDS011;16452;54.174;12.092;2022-11-22T09:04:31;32.88;;;20.45;;
29504;SDS011;16452;54.174;12.092;2022-11-22T09:06:56;33.35;;;21.00;;
29504;SDS011;16452;54.174;12.092;2022-11-22T09:09:24;34.95;;;20.77;;
29504;SDS011;16452;54.174;12.092;2022-11-22T09:11:50;31.83;;;20.23;;
29504;SDS011;16452;54.174;12.092;2022-11-22T09:14:16;34.65;;;21.98;;
29504;SDS011;16452;54.174;12.092;2022-11-22T09:16:42;32.58;;;20.55;;
29504;SDS011;16452;54.174;12.092;2022-11-22T09:19:08;34.70;;;22.13;;
29504;SDS011;16452;54.174;12.092;2022-11-22T09:21:34;35.08;;;22.05;;
29504;SDS011;16452;54.174;12.092;2022-11-22T09:23:59;34.65;;;21.35;;
29504;SDS011;16452;54.174;12.092;2022-11-22T09:26:25;32.25;;;20.92;;
29504;SDS011;16452;54.174;12.092;2022-11-22T09:28:51;35.40;;;21.73;;
29504;SDS011;16452;54.174;12.092;2022-11-22T09:31:18;35.80;;;20.92;;
29504;SDS011;16452;54.174;12.092;2022-11-22T09:33:46;39.72;;;21.48;;
29504;SDS011;16452;54.174;12.092;2022-11-22T09:36:17;35.75;;;21.50;;
29504;SDS011;16452;54.174;12.092;2022-11-22T09:38:47;35.05;;;21.55;;
29504;SDS011;16452;54.174;12.092;2022-11-22T09:47:00;35.45;;;21.52;;
29504;SDS011;16452;54.174;12.092;2022-11-22T09:52:14;32.78;;;21.40;;
29504;SDS011;16452;54.174;12.092;2022-11-22T09:55:05;32.33;;;19.55;;
29504;SDS011;16452;54.174;12.092;2022-11-22T09:57:43;31.65;;;21.08;;
29504;SDS011;16452;54.174;12.092;2022-11-22T10:00:20;32.78;;;21.48;;
29504;SDS011;16452;54.174;12.092;2022-11-22T10:06:07;30.92;;;20.25;;
29504;SDS011;16452;54.174;12.092;2022-11-22T10:09:03;32.03;;;19.73;;
29504;SDS011;16452;54.174;12.092;2022-11-22T10:17:51;30.92;;;19.60;;
29504;SDS011;16452;54.174;12.092;2022-11-22T10:20:26;32.70;;;20.02;;
29504;SDS011;16452;54.174;12.092;2022-11-22T10:22:55;30.83;;;19.75;;
29504;SDS011;16452;54.174;12.092;2022-11-22T10:31:08;33.70;;;21.58;;
29504;SDS011;16452;54.174;12.092;2022-11-22T10:33:50;31.67;;;20.73;;
29504;SDS011;16452;54.174;12.092;2022-11-22T10:39:30;34.40;;;21.25;;
29504;SDS011;16452;54.174;12.092;2022-11-22T10:44:53;33.92;;;21.85;;
29504;SDS011;16452;54.174;12.092;2022-11-22T10:53:41;36.45;;;21.15;;
29504;SDS011;16452;54.174;12.092;2022-11-22T10:56:23;34.67;;;21.52;;
29504;SDS011;16452;54.174;12.092;2022-11-22T11:05:09;33.38;;;20.58;;
29504;SDS011;16452;54.174;12.092;2022-11-22T11:07:40;42.60;;;23.13;;
29504;SDS011;16452;54.174;12.092;2022-11-22T11:10:15;38.38;;;23.55;;
29504;SDS011;16452;54.174;12.092;2022-11-22T11:12:51;38.00;;;22.35;;
29504;SDS011;16452;54.174;12.092;2022-11-22T11:15:49;38.33;;;23.00;;
29504;SDS011;16452;54.174;12.092;2022-11-22T11:18:20;39.58;;;24.30;;
29504;SDS011;16452;54.174;12.092;2022-11-22T11:20:52;42.63;;;24.77;;
29504;SDS011;16452;54.174;12.092;2022-11-22T11:23:19;43.88;;;25.30;;
29504;SDS011;16452;54.174;12.092;2022-11-22T11:25:45;43.55;;;25.05;;
29504;SDS011;16452;54.174;12.092;2022-11-22T11:33:35;45.15;;;25.13;;
29504;SDS011;16452;54.174;12.092;2022-11-22T11:38:53;50.17;;;27.27;;
29504;SDS011;16452;54.174;12.092;2022-11-22T11:44:01;46.78;;;26.13;;
29504;SDS011;16452;54.174;12.092;2022-11-22T11:51:38;47.85;;;25.65;;
29504;SDS011;16452;54.174;12.092;2022-11-22T11:54:14;53.40;;;27.55;;
29504;SDS011;16452;54.174;12.092;2022-11-22T11:56:45;57.10;;;28.83;;
29504;SDS011;16452;54.174;12.092;2022-11-22T11:59:20;57.08;;;29.13;;
29504;SDS011;16452;54.174;12.092;2022-11-22T12:01:54;54.80;;;27.13;;
29504;SDS011;16452;54.174;12.092;2022-11-22T12:04:27;53.13;;;27.35;;
29504;SDS011;16452;54.174;12.092;2022-11-22T12:07:00;51.55;;;26.02;;
29504;SDS011;16452;54.174;12.092;2022-11-22T12:09:43;53.28;;;27.45;;
29504;SDS011;16452;54.174;12.092;2022-11-22T12:12:23;51.42;;;26.98;;
29504;SDS011;16452;54.174;12.092;2022-11-22T12:17:53;49.42;;;27.70;;
29504;SDS011;16452;54.174;12.092;2022-11-22T12:20:41;53.55;;;28.70;;
29504;SDS011;16452;54.174;12.092;2022-11-22T12:26:11;54.25;;;28.38;;
29504;SDS011;16452;54.174;12.092;2022-11-22T12:28:39;60.95;;;30.08;;
29504;SDS011;16452;54.174;12.092;2022-11-22T12:31:06;58.75;;;29.90;;
29504;SDS011;16452;54.174;12.092;2022-11-22T12:33:42;55.17;;;28.48;;
29504;SDS011;16452;54.174;12.092;2022-11-22T12:36:14;58.22;;;29.98;;
29504;SDS011;16452;54.174;12.092;2022-11-22T12:39:02;55.97;;;28.00;;
29504;SDS011;16452;54.174;12.092;2022-11-22T12:41:30;64.72;;;31.20;;
29504;SDS011;16452;54.174;12.092;2022-11-22T12:43:58;62.75;;;29.88;;
29504;SDS011;16452;54.174;12.092;2022-11-22T12:46:29;60.58;;;30.58;;
29504;SDS011;16452;54.174;12.092;2022-11-22T12:49:29;58.58;;;30.35;;
29504;SDS011;16452;54.174;12.092;2022-11-22T12:52:17;63.08;;;31.20;;
29504;SDS011;16452;54.174;12.092;2022-11-22T12:54:56;63.22;;;31.02;;
29504;SDS011;16452;54.174;12.092;2022-11-22T12:57:34;60.08;;;29.70;;
29504;SDS011;16452;54.174;12.092;2022-11-22T13:00:19;60.47;;;31.95;;
29504;SDS011;16452;54.174;12.092;2022-11-22T13:05:47;63.80;;;30.25;;
29504;SDS011;16452;54.174;12.092;2022-11-22T13:14:09;64.38;;;31.63;;
29504;SDS011;16452;54.174;12.092;2022-11-22T13:16:41;64.20;;;31.92;;
29504;SDS011;16452;54.174;12.092;2022-11-22T13:19:07;59.42;;;30.35;;
29504;SDS011;16452;54.174;12.092;2022-11-22T13:27:51;59.90;;;30.92;;
29504;SDS011;16452;54.174;12.092;2022-11-22T13:30:20;62.25;;;31.67;;
29504;SDS011;16452;54.174;12.092;2022-11-22T13:32:50;63.70;;;33.05;;
29504;SDS011;16452;54.174;12.092;2022-11-22T13:35:27;57.30;;;29.65;;
29504;SDS011;16452;54.174;12.092;2022-11-22T13:38:07;59.78;;;29.92;;
29504;SDS011;16452;54.174;12.092;2022-11-22T13:40:44;60.97;;;30.33;;
29504;SDS011;16452;54.174;12.092;2022-11-22T13:49:05;65.63;;;31.08;;
29504;SDS011;16452;54.174;12.092;2022-11-22T13:51:09;60.75;;;29.63;;
29504;SDS011;16452;54.174;12.092;2022-11-22T13:53:38;55.90;;;29.55;;
29504;SDS011;16452;54.174;12.092;2022-11-22T14:06:49;60.95;;;30.30;;
29504;SDS011;16452;54.174;12.092;2022-11-22T14:09:44;61.55;;;29.85;;
29504;SDS011;16452;54.174;12.092;2022-11-22T14:15:33;64.28;;;29.85;;
29504;SDS011;16452;54.174;12.092;2022-11-22T14:18:28;69.88;;;29.77;;
29504;SDS011;16452;54.174;12.092;2022-11-22T14:24:40;64.38;;;31.48;;
29504;SDS011;16452;54.174;12.092;2022-11-22T14:30:22;68.75;;;29.90;;
29504;SDS011;16452;54.174;12.092;2022-11-22T14:33:18;71.35;;;34.63;;
29504;SDS011;16452;54.174;12.092;2022-11-22T14:38:32;65.07;;;30.77;;
29504;SDS011;16452;54.174;12.092;2022-11-22T14:43:56;64.80;;;29.58;;
29504;SDS011;16452;54.174;12.092;2022-11-22T14:49:26;69.60;;;31.15;;
29504;SDS011;16452;54.174;12.092;2022-11-22T14:52:23;69.90;;;31.77;;
29504;SDS011;16452;54.174;12.092;2022-11-22T14:54:57;66.88;;;30.85;;
29504;SDS011;16452;54.174;12.092;2022-11-22T14:57:27;67.38;;;31.15;;
29504;SDS011;16452;54.174;12.092;2022-11-22T15:00:12;68.68;;;30.13;;
29504;SDS011;16452;54.174;12.092;2022-11-22T15:08:29;66.68;;;28.98;;
29504;SDS011;16452;54.174;12.092;2022-11-22T15:11:51;68.50;;;29.42;;
29504;SDS011;16452;54.174;12.092;2022-11-22T15:18:22;67.93;;;31.17;;
29504;SDS011;16452;54.174;12.092;2022-11-22T15:20:58;69.57;;;30.17;;
29504;SDS011;16452;54.174;12.092;2022-11-22T15:23:25;71.80;;;32.20;;
29504;SDS011;16452;54.174;12.092;2022-11-22T15:25:59;71.03;;;29.83;;
29504;SDS011;16452;54.174;12.092;2022-11-22T15:28:29;68.07;;;29.20;;
29504;SDS011;16452;54.174;12.092;2022-11-22T15:30:56;67.97;;;29.25;;
29504;SDS011;16452;54.174;12.092;2022-11-22T15:39:26;58.33;;;27.08;;
29504;SDS011;16452;54.174;12.092;2022-11-22T15:41:54;68.78;;;30.02;;
29504;SDS011;16452;54.174;12.092;2022-11-22T15:44:23;63.75;;;29.88;;
29504;SDS011;16452;54.174;12.092;2022-11-22T15:46:50;71.75;;;29.10;;
29504;SDS011;16452;54.174;12.092;2022-11-22T15:49:18;70.85;;;30.42;;
29504;SDS011;16452;54.174;12.092;2022-11-22T15:51:52;64.22;;;29.77;;
29504;SDS011;16452;54.174;12.092;2022-11-22T15:54:21;70.30;;;30.60;;
29504;SDS011;16452;54.174;12.092;2022-11-22T15:56:53;65.95;;;28.77;;
29504;SDS011;16452;54.174;12.092;2022-11-22T15:59:56;68.90;;;30.05;;
29504;SDS011;16452;54.174;12.092;2022-11-22T16:02:19;73.80;;;30.35;;
29504;SDS011;16452;54.174;12.092;2022-11-22T16:04:55;76.75;;;31.80;;
29504;SDS011;16452;54.174;12.092;2022-11-22T16:10:20;75.70;;;31.75;;
29504;SDS011;16452;54.174;12.092;2022-11-22T16:13:20;73.60;;;31.00;;
29504;SDS011;16452;54.174;12.092;2022-11-22T16:19:11;76.97;;;31.95;;
29504;SDS011;16452;54.174;12.092;2022-11-22T16:21:54;76.63;;;32.38;;
29504;SDS011;16452;54.174;12.092;2022-11-22T16:24:30;78.53;;;32.15;;
29504;SDS011;16452;54.174;12.092;2022-11-22T16:26:57;77.88;;;31.33;;
29504;SDS011;16452;54.174;12.092;2022-11-22T16:29:37;72.03;;;31.13;;
29504;SDS011;16452;54.174;12.092;2022-11-22T16:32:13;68.20;;;31.02;;
29504;SDS011;16452;54.174;12.092;2022-11-22T16:34:40;74.32;;;31.90;;
29504;SDS011;16452;54.174;12.092;2022-11-22T16:37:26;77.20;;;31.55;;
29504;SDS011;16452;54.174;12.092;2022-11-22T16:39:56;74.75;;;31.40;;
29504;SDS011;16452;54.174;12.092;2022-11-22T16:42:25;79.38;;;32.03;;
29504;SDS011;16452;54.174;12.092;2022-11-22T16:44:50;75.38;;;31.67;;
29504;SDS011;16452;54.174;12.092;2022-11-22T16:47:17;73.50;;;30.67;;
29504;SDS011;16452;54.174;12.092;2022-11-22T16:49:44;76.93;;;32.28;;
29504;SDS011;16452;54.174;12.092;2022-11-22T16:52:12;74.07;;;31.33;;
29504;SDS011;16452;54.174;12.092;2022-11-22T16:54:41;77.53;;;32.00;;
29504;SDS011;16452;54.174;12.092;2022-11-22T16:57:08;72.07;;;32.28;;